Kanaskat, Washington
Current Conditions -  °F | °C
As of 5:53 AM on Saturday 22 Nov 2014 (Local Time) from KRNT Reporting Station
Overcast Overcast  
Wind Chill: 43°   Ceiling: 8000
Heat Index: 47°   Visibility: 10mi
Dew Point: 40°   Wind: 8mph
Humidity: 77%   Direction: 150°SSE
Pressure: 29.68"   Gusts: NA
Location:  47.3777°N, 121.913°W
Report Text: KRNT 221353Z AUTO 15007KT 10SM BKN080 OVC120 08/04 A2968 RMK AO2 SLP056 T00830044
Loading
Personal Weather Stations






























Interactive Weather Map New forecast layout! Learn more

10-Day Weather Forecast

Advertisements
Track Severe Weather on mobile